»·PEaware :: N520MP KCRQ-KSBA

N520MP :: KCRQ-KSBA

FLIGHT INFORMATION

Flight Status: Arrived
Operator: Privately registered:
United States
More flights under this callsign
Pilot: Manuel P. (9695)
Aircraft: CANADAIR CL-600 CRJ-200
(CRJ2)
More flights by this aircraft type
Origin: KCRQ McClellan-Palomar
United States
Destination: KSBA Santa Barbara Mun
United States
More flights between these airports :: More routes between these airports
Route: +MZB293R V27 SXC V208 VTU VTU282R KWANG
File this flight plan on PilotEdge
Remarks:
Altitude:
(Current/Filed)
10,000ft
Speed:
(Current/Filed)
400kts
Departed: 05-Sep-17 03:58 PM
Arrived: 05-Sep-17 04:32 PM
Distance/Time
Traveled:
149nm/0:34
Distance/Time
To Go:
Arrived

Flight Plot

Page will automatically refresh every two minutes.


Map Options




Map Legend


Flown Route
Filed Route
Departure Airport
Arrival Airport
Navaid (VOR, NDB)
Fix

Horizontal Profiles

Position Reports

Time Latitude Longitude Heading Altitude Ground
Speed
05-Sep-17 15:44 33.126666 -117.280669 78 336ft 0kts
05-Sep-17 15:45 33.126666 -117.280669 78 336ft 0kts
05-Sep-17 15:46 33.126666 -117.280669 78 336ft 0kts
05-Sep-17 15:47 33.126666 -117.280669 78 336ft 0kts
05-Sep-17 15:48 33.126666 -117.280669 78 336ft 0kts
05-Sep-17 15:49 33.126666 -117.280669 78 336ft 0kts
05-Sep-17 15:50 33.126666 -117.280669 78 336ft 0kts
05-Sep-17 15:51 33.126666 -117.280669 78 336ft 0kts
05-Sep-17 15:52 33.126666 -117.280669 78 336ft 0kts
05-Sep-17 15:53 33.126666 -117.280669 78 336ft 0kts
05-Sep-17 15:54 33.126666 -117.280669 78 336ft 0kts
05-Sep-17 15:55 33.126666 -117.280669 78 336ft 0kts
05-Sep-17 15:56 33.126699 -117.280619 36 336ft 1kts
05-Sep-17 15:57 33.127042 -117.280414 76 336ft 3kts
05-Sep-17 15:58 33.127490 -117.279660 78 336ft 6kts
05-Sep-17 15:59 33.127786 -117.277769 78 336ft 12kts
05-Sep-17 16:00 33.128572 -117.272855 76 336ft 3kts
05-Sep-17 16:01 33.129304 -117.272222 2 336ft 6kts
05-Sep-17 16:02 33.126186 -117.294464 262 906ft 158kts
05-Sep-17 16:03 33.118965 -117.355241 261 3844ft 213kts
05-Sep-17 16:04 33.111249 -117.435898 261 5870ft 273kts
05-Sep-17 16:05 33.102414 -117.529041 261 5969ft 278kts
05-Sep-17 16:06 33.093919 -117.618292 261 6249ft 276kts
05-Sep-17 16:07 33.098434 -117.707046 305 8189ft 289kts
05-Sep-17 16:08 33.149469 -117.784069 305 9739ft 302kts
05-Sep-17 16:09 33.202212 -117.865072 305 9978ft 318kts
05-Sep-17 16:10 33.229716 -117.961734 282 9970ft 321kts
05-Sep-17 16:11 33.269055 -118.063515 295 9977ft 358kts
05-Sep-17 16:12 33.318033 -118.169345 296 10013ft 387kts
05-Sep-17 16:13 33.358074 -118.289034 276 10022ft 395kts
05-Sep-17 16:14 33.379243 -118.417995 295 10006ft 403kts
05-Sep-17 16:15 33.448310 -118.523958 308 10021ft 404kts
05-Sep-17 16:16 33.520386 -118.626929 308 10024ft 404kts
05-Sep-17 16:17 33.591639 -118.728873 307 10027ft 406kts
05-Sep-17 16:18 33.664030 -118.832731 307 10032ft 407kts
05-Sep-17 16:19 33.734718 -118.934413 307 10023ft 389kts
05-Sep-17 16:20 33.806161 -119.010990 345 9644ft 309kts
05-Sep-17 16:21 33.883674 -119.024701 354 8971ft 264kts
05-Sep-17 16:22 33.957134 -119.032860 355 8908ft 276kts
05-Sep-17 16:23 34.033797 -119.040842 353 6075ft 284kts
05-Sep-17 16:24 34.107467 -119.053917 323 5971ft 258kts
05-Sep-17 16:25 34.146609 -119.126485 295 5987ft 273kts
05-Sep-17 16:26 34.180452 -119.205519 294 5974ft 258kts
05-Sep-17 16:27 34.213021 -119.283297 294 5986ft 272kts
05-Sep-17 16:28 34.248463 -119.368260 294 5981ft 291kts
05-Sep-17 16:29 34.285227 -119.456635 294 5924ft 284kts
05-Sep-17 16:30 34.319299 -119.537777 294 5927ft 262kts
05-Sep-17 16:31 34.352580 -119.609853 305 5165ft 241kts
05-Sep-17 16:32 34.395496 -119.671528 309 3076ft 224kts
05-Sep-17 16:33 34.427042 -119.723650 290 2222ft 169kts
05-Sep-17 16:34 34.429574 -119.771504 264 1112ft 127kts
05-Sep-17 16:35 34.428464 -119.813251 265 390ft 126kts
05-Sep-17 16:36 34.427581 -119.845852 251 18ft 13kts
05-Sep-17 16:37 34.426744 -119.846262 151 18ft 5kts
05-Sep-17 16:38 34.426634 -119.842006 88 18ft 14kts
05-Sep-17 16:39 34.426478 -119.838328 152 18ft 8kts
05-Sep-17 16:40 34.423947 -119.836950 76 18ft 3kts
05-Sep-17 16:41 34.424061 -119.836857 288 18ft 0kts
05-Sep-17 16:42 34.424051 -119.836823 256 18ft 0kts
05-Sep-17 16:43 34.424051 -119.836823 256 18ft 0kts
05-Sep-17 16:44 34.424051 -119.836823 256 18ft 0kts

Navigation Log

Ident Type
1. KCRQ Airport
2. SXC Navaid
3. WEEZL Fix
4. VTU Navaid
5. KWANG Fix
6. KSBA Airport